createdAt,value
2023-04-10T00:00:13.096Z,1005.74
2023-04-10T00:01:13.076Z,1005.71
2023-04-10T00:02:13.349Z,1005.72
2023-04-10T00:03:14.023Z,1005.69
2023-04-10T00:04:13.561Z,1005.69
2023-04-10T00:05:13.780Z,1005.65
2023-04-10T00:06:13.988Z,1005.66
2023-04-10T00:07:12.918Z,1005.65
2023-04-10T00:08:13.022Z,1005.65
2023-04-10T00:09:12.922Z,1005.61
2023-04-10T00:10:14.179Z,1005.61
2023-04-10T00:11:13.328Z,1005.62
2023-04-10T00:12:13.332Z,1005.61
2023-04-10T00:13:13.627Z,1005.58
2023-04-10T00:14:13.488Z,1005.60
2023-04-10T00:15:13.659Z,1005.59
2023-04-10T00:16:13.623Z,1005.53
2023-04-10T00:17:13.511Z,1005.57
2023-04-10T00:18:13.628Z,1005.56
2023-04-10T00:19:13.523Z,1005.52
2023-04-10T00:20:13.427Z,1005.54
2023-04-10T00:21:13.365Z,1005.54
2023-04-10T00:22:13.260Z,1005.49
2023-04-10T00:23:13.511Z,1005.53
2023-04-10T00:24:13.804Z,1005.47
2023-04-10T00:25:13.892Z,1005.49
2023-04-10T00:26:13.001Z,1005.47
2023-04-10T00:27:12.898Z,1005.43
2023-04-10T00:28:13.460Z,1005.44
2023-04-10T00:29:13.443Z,1005.46
2023-04-10T00:30:13.395Z,1005.46
2023-04-10T00:31:13.307Z,1005.43
2023-04-10T00:32:13.601Z,1005.41
2023-04-10T00:33:13.710Z,1005.42
2023-04-10T00:34:13.866Z,1005.40
2023-04-10T00:35:13.866Z,1005.37
2023-04-10T00:36:13.907Z,1005.33
2023-04-10T00:37:12.855Z,1005.33
2023-04-10T00:38:14.033Z,1005.34
2023-04-10T00:39:13.103Z,1005.32
2023-04-10T00:40:13.101Z,1005.27
2023-04-10T00:41:13.270Z,1005.28
2023-04-10T00:42:13.179Z,1005.26
2023-04-10T00:43:14.751Z,1005.24
2023-04-10T00:44:13.604Z,1005.23
2023-04-10T00:45:13.859Z,1005.19
2023-04-10T00:46:13.832Z,1005.18
2023-04-10T00:47:12.981Z,1005.17
2023-04-10T00:48:12.977Z,1005.15
2023-04-10T00:49:13.151Z,1005.14
2023-04-10T00:50:13.233Z,1005.13
2023-04-10T00:51:13.840Z,1005.16
2023-04-10T00:52:13.709Z,1005.13
2023-04-10T00:53:13.762Z,1005.15
2023-04-10T00:54:14.052Z,1005.15
2023-04-10T00:55:13.017Z,1005.11
2023-04-10T00:56:12.855Z,1005.12
2023-04-10T00:57:13.949Z,1005.11
2023-04-10T00:58:13.532Z,1005.09
2023-04-10T00:59:13.412Z,1005.08
2023-04-10T01:00:13.511Z,1005.07
2023-04-10T01:01:13.532Z,1005.06
2023-04-10T01:02:13.794Z,1005.05
2023-04-10T01:03:14.149Z,1005.06
2023-04-10T01:04:13.299Z,1005.10
2023-04-10T01:05:13.330Z,1005.07
2023-04-10T01:06:13.417Z,1005.11
2023-04-10T01:07:13.630Z,1005.07
2023-04-10T01:08:13.633Z,1005.05
2023-04-10T01:09:13.778Z,1005.05
2023-04-10T01:10:13.617Z,1005.07
2023-04-10T01:11:13.562Z,1005.04
2023-04-10T01:12:13.594Z,1005.03
2023-04-10T01:13:13.566Z,1005.02
2023-04-10T01:14:13.604Z,1005.05
2023-04-10T01:15:13.803Z,1005.08
2023-04-10T01:16:13.970Z,1005.07
2023-04-10T01:17:13.286Z,1005.05
2023-04-10T01:18:13.298Z,1005.02
2023-04-10T01:19:13.407Z,1005.02
2023-04-10T01:20:13.318Z,1005.04
2023-04-10T01:21:13.543Z,1005.01
2023-04-10T01:22:13.454Z,1005.01
2023-04-10T01:23:13.483Z,1005.00
2023-04-10T01:24:13.406Z,1004.98
2023-04-10T01:25:13.602Z,1005.02
2023-04-10T01:26:13.639Z,1005.01
2023-04-10T01:27:13.753Z,1005.03
2023-04-10T01:28:13.626Z,1005.06
2023-04-10T01:29:13.506Z,1005.01
2023-04-10T01:30:13.359Z,1005.07
2023-04-10T01:31:13.217Z,1005.02
2023-04-10T01:32:13.100Z,1005.04
2023-04-10T01:33:12.982Z,1005.04
2023-04-10T01:34:13.235Z,1005.05
2023-04-10T01:35:13.299Z,1005.04
2023-04-10T01:36:13.439Z,1005.00
2023-04-10T01:37:13.470Z,1005.01
2023-04-10T01:38:13.752Z,1005.01
2023-04-10T01:39:14.192Z,1005.02
2023-04-10T01:40:13.357Z,1005.02
2023-04-10T01:41:13.784Z,1004.99
2023-04-10T01:42:13.857Z,1004.95
2023-04-10T01:43:13.825Z,1004.96
2023-04-10T01:44:13.664Z,1004.91
2023-04-10T01:45:13.580Z,1004.87
2023-04-10T01:46:13.499Z,1004.87
2023-04-10T01:47:13.769Z,1004.85
2023-04-10T01:48:26.831Z,1004.86
2023-04-10T01:49:31.635Z,1004.80
2023-04-10T01:50:13.601Z,1004.77
2023-04-10T01:51:13.610Z,1004.74
2023-04-10T01:52:13.445Z,1004.73
2023-04-10T01:53:13.848Z,1004.68
2023-04-10T01:54:13.728Z,1004.65
2023-04-10T01:55:14.013Z,1004.64
2023-04-10T01:56:12.968Z,1004.62
2023-04-10T01:57:12.980Z,1004.58
2023-04-10T01:58:12.900Z,1004.61
2023-04-10T01:59:12.758Z,1004.62
2023-04-10T02:00:13.668Z,1004.65
2023-04-10T02:01:22.541Z,1004.64
2023-04-10T02:02:13.782Z,1004.67
2023-04-10T02:03:14.070Z,1004.61
2023-04-10T02:04:13.140Z,1004.64
2023-04-10T02:05:13.073Z,1004.61
2023-04-10T02:06:13.111Z,1004.65
2023-04-10T02:07:13.062Z,1004.62
2023-04-10T02:08:12.925Z,1004.59
2023-04-10T02:09:12.951Z,1004.60
2023-04-10T02:10:12.983Z,1004.59
2023-04-10T02:11:13.127Z,1004.62
2023-04-10T02:12:13.188Z,1004.61
2023-04-10T02:13:13.094Z,1004.60
2023-04-10T02:14:13.173Z,1004.62
2023-04-10T02:15:13.334Z,1004.64
2023-04-10T02:16:13.429Z,1004.62
2023-04-10T02:17:13.382Z,1004.59
2023-04-10T02:18:13.193Z,1004.59
2023-04-10T02:19:13.227Z,1004.59
2023-04-10T02:20:13.140Z,1004.60
2023-04-10T02:21:12.981Z,1004.58
2023-04-10T02:22:13.030Z,1004.55
2023-04-10T02:23:12.856Z,1004.57
2023-04-10T02:24:13.770Z,1004.57
2023-04-10T02:25:13.648Z,1004.54
2023-04-10T02:26:13.546Z,1004.53
2023-04-10T02:27:13.752Z,1004.49
2023-04-10T02:28:13.675Z,1004.52
2023-04-10T02:29:13.549Z,1004.54
2023-04-10T02:30:13.748Z,1004.55
2023-04-10T02:31:13.801Z,1004.53
2023-04-10T02:32:14.133Z,1004.53
2023-04-10T02:33:13.376Z,1004.54
2023-04-10T02:34:13.593Z,1004.48
2023-04-10T02:35:13.857Z,1004.49
2023-04-10T02:36:14.279Z,1004.47
2023-04-10T02:37:13.281Z,1004.46
2023-04-10T02:38:16.811Z,1004.44
2023-04-10T02:39:13.291Z,1004.44
2023-04-10T02:40:13.128Z,1004.44
2023-04-10T02:41:13.424Z,1004.42
2023-04-10T02:42:13.311Z,1004.42
2023-04-10T02:43:13.487Z,1004.40
2023-04-10T02:44:13.414Z,1004.39
2023-04-10T02:45:13.631Z,1004.43
2023-04-10T02:46:13.921Z,1004.36
2023-04-10T02:47:13.106Z,1004.38
2023-04-10T02:48:13.140Z,1004.37
2023-04-10T02:49:13.449Z,1004.37
2023-04-10T02:50:13.466Z,1004.40
2023-04-10T02:51:13.458Z,1004.39
2023-04-10T02:52:13.721Z,1004.39
2023-04-10T02:53:13.685Z,1004.39
2023-04-10T02:54:13.581Z,1004.40
2023-04-10T02:55:13.455Z,1004.37
2023-04-10T02:56:13.396Z,1004.41
2023-04-10T02:57:13.376Z,1004.41
2023-04-10T02:58:15.177Z,1004.40
2023-04-10T02:59:13.447Z,1004.44
2023-04-10T03:00:13.645Z,1004.46
2023-04-10T03:01:13.641Z,1004.46
2023-04-10T03:02:13.628Z,1004.45
2023-04-10T03:03:13.902Z,1004.42
2023-04-10T03:04:13.483Z,1004.47
2023-04-10T03:05:13.823Z,1004.45
2023-04-10T03:06:13.987Z,1004.45
2023-04-10T03:07:13.177Z,1004.45
2023-04-10T03:08:13.160Z,1004.47
2023-04-10T03:09:13.314Z,1004.46
2023-04-10T03:10:13.383Z,1004.42
2023-04-10T03:11:13.341Z,1004.40
2023-04-10T03:12:13.210Z,1004.41
2023-04-10T03:13:13.425Z,1004.37
2023-04-10T03:14:13.391Z,1004.42
2023-04-10T03:15:13.464Z,1004.40
2023-04-10T03:16:13.579Z,1004.34
2023-04-10T03:17:13.627Z,1004.38
2023-04-10T03:18:13.811Z,1004.39
2023-04-10T03:19:13.984Z,1004.32
2023-04-10T03:20:12.810Z,1004.32
2023-04-10T03:21:13.710Z,1004.33
2023-04-10T03:22:13.651Z,1004.32
2023-04-10T03:23:13.944Z,1004.32
2023-04-10T03:24:12.835Z,1004.30
2023-04-10T03:25:13.907Z,1004.32
2023-04-10T03:26:12.937Z,1004.27
2023-04-10T03:27:12.924Z,1004.26
2023-04-10T03:28:12.786Z,1004.24
2023-04-10T03:29:13.744Z,1004.21
2023-04-10T03:30:13.617Z,1004.19
2023-04-10T03:31:13.501Z,1004.17
2023-04-10T03:32:13.511Z,1004.12
2023-04-10T03:33:13.540Z,1004.12
2023-04-10T03:34:13.585Z,1004.12
2023-04-10T03:35:13.650Z,1004.11
2023-04-10T03:36:13.528Z,1004.08
2023-04-10T03:37:13.456Z,1004.08
2023-04-10T03:38:13.384Z,1004.06
2023-04-10T03:39:13.320Z,1004.03
2023-04-10T03:40:13.220Z,1004.03
2023-04-10T03:41:13.036Z,1003.99
2023-04-10T03:42:12.898Z,1004.00
2023-04-10T03:43:13.047Z,1004.00
2023-04-10T03:44:12.944Z,1003.98
2023-04-10T03:45:14.251Z,1003.95
2023-04-10T03:46:13.585Z,1003.95
2023-04-10T03:47:13.546Z,1003.95
2023-04-10T03:48:13.444Z,1003.95
2023-04-10T03:49:13.332Z,1003.93
2023-04-10T03:50:13.210Z,1003.93
2023-04-10T03:51:13.469Z,1003.89
2023-04-10T03:52:13.390Z,1003.87
2023-04-10T03:53:13.453Z,1003.90
2023-04-10T03:54:13.297Z,1003.89
2023-04-10T03:55:13.195Z,1003.90
2023-04-10T03:56:13.024Z,1003.90
2023-04-10T03:57:13.032Z,1003.93
2023-04-10T03:58:13.278Z,1003.94
2023-04-10T03:59:13.198Z,1003.93
2023-04-10T04:00:13.311Z,1003.91
2023-04-10T04:01:13.221Z,1003.95
2023-04-10T04:02:18.348Z,1003.92
2023-04-10T04:03:13.551Z,1003.93
2023-04-10T04:04:14.036Z,1003.94
2023-04-10T04:05:13.125Z,1003.91
2023-04-10T04:06:13.017Z,1003.92
2023-04-10T04:07:12.991Z,1003.94
2023-04-10T04:08:12.843Z,1003.90
2023-04-10T04:09:13.866Z,1003.92
2023-04-10T04:10:13.793Z,1003.89
2023-04-10T04:11:14.018Z,1003.90
2023-04-10T04:12:12.846Z,1003.87
2023-04-10T04:13:14.034Z,1003.88
2023-04-10T04:14:13.008Z,1003.88
2023-04-10T04:15:13.203Z,1003.90
2023-04-10T04:16:13.217Z,1003.89
2023-04-10T04:17:13.280Z,1003.88
2023-04-10T04:18:13.103Z,1003.91
2023-04-10T04:19:12.995Z,1003.89
2023-04-10T04:20:13.065Z,1003.88
2023-04-10T04:21:13.026Z,1003.88
2023-04-10T04:22:13.267Z,1003.90
2023-04-10T04:23:13.391Z,1003.89
2023-04-10T04:24:13.305Z,1003.88
2023-04-10T04:25:13.386Z,1003.89
2023-04-10T04:26:13.615Z,1003.90
2023-04-10T04:27:13.562Z,1003.87
2023-04-10T04:28:13.863Z,1003.86
2023-04-10T04:29:13.736Z,1003.84
2023-04-10T04:30:13.620Z,1003.85
2023-04-10T04:31:13.631Z,1003.79
2023-04-10T04:32:14.139Z,1003.77
2023-04-10T04:33:13.392Z,1003.78
2023-04-10T04:34:13.245Z,1003.79
2023-04-10T04:35:13.409Z,1003.77
2023-04-10T04:36:13.339Z,1003.77
2023-04-10T04:37:13.194Z,1003.74
2023-04-10T04:38:13.051Z,1003.75
2023-04-10T04:39:13.127Z,1003.74
2023-04-10T04:40:13.305Z,1003.74
2023-04-10T04:41:13.637Z,1003.74
2023-04-10T04:42:13.918Z,1003.77
2023-04-10T04:43:12.802Z,1003.70
2023-04-10T04:44:13.716Z,1003.73
2023-04-10T04:45:13.829Z,1003.74
2023-04-10T04:46:13.755Z,1003.66
2023-04-10T04:47:15.209Z,1003.67
2023-04-10T04:48:13.353Z,1003.66
2023-04-10T04:49:13.441Z,1003.64
2023-04-10T04:50:13.362Z,1003.65
2023-04-10T04:51:13.511Z,1003.61
2023-04-10T04:52:14.080Z,1003.61
2023-04-10T04:53:13.157Z,1003.60
2023-04-10T04:54:13.332Z,1003.62
2023-04-10T04:55:13.287Z,1003.60
2023-04-10T04:56:13.372Z,1003.57
2023-04-10T04:57:13.682Z,1003.56
2023-04-10T04:58:13.636Z,1003.59
2023-04-10T04:59:13.836Z,1003.60
2023-04-10T05:00:12.778Z,1003.58
2023-04-10T05:01:13.665Z,1003.61
2023-04-10T05:02:13.733Z,1003.63
2023-04-10T05:03:13.862Z,1003.62
2023-04-10T05:04:13.549Z,1003.58
2023-04-10T05:05:13.832Z,1003.61
2023-04-10T05:06:13.909Z,1003.58
2023-04-10T05:07:13.164Z,1003.55
2023-04-10T05:08:13.293Z,1003.62
2023-04-10T05:09:13.679Z,1003.57
2023-04-10T05:10:13.650Z,1003.57
2023-04-10T05:11:13.625Z,1003.57
2023-04-10T05:12:13.557Z,1003.48
2023-04-10T05:13:13.693Z,1003.49
2023-04-10T05:14:13.564Z,1003.52
2023-04-10T05:15:13.641Z,1003.52
2023-04-10T05:16:13.638Z,1003.51
2023-04-10T05:17:13.683Z,1003.49
2023-04-10T05:18:13.940Z,1003.50
2023-04-10T05:19:12.899Z,1003.52
2023-04-10T05:20:12.897Z,1003.51
2023-04-10T05:21:14.871Z,1003.53
2023-04-10T05:22:13.826Z,1003.55
2023-04-10T05:23:13.749Z,1003.49
2023-04-10T05:24:13.569Z,1003.50
2023-04-10T05:25:13.483Z,1003.54
2023-04-10T05:26:13.648Z,1003.53
2023-04-10T05:27:13.710Z,1003.50
2023-04-10T05:28:13.596Z,1003.54
2023-04-10T05:29:13.509Z,1003.52
2023-04-10T05:30:13.344Z,1003.56
2023-04-10T05:31:13.267Z,1003.56
2023-04-10T05:32:13.104Z,1003.57
2023-04-10T05:33:13.386Z,1003.59
2023-04-10T05:34:13.302Z,1003.62
2023-04-10T05:35:13.341Z,1003.65
2023-04-10T05:36:13.657Z,1003.66
2023-04-10T05:37:13.624Z,1003.61
2023-04-10T05:38:13.840Z,1003.63
2023-04-10T05:39:13.076Z,1003.62
2023-04-10T05:40:13.135Z,1003.59
2023-04-10T05:41:13.308Z,1003.65
2023-04-10T05:42:13.283Z,1003.67
2023-04-10T05:43:13.306Z,1003.65
2023-04-10T05:44:13.214Z,1003.67
2023-04-10T05:45:13.198Z,1003.69
2023-04-10T05:46:13.075Z,1003.70
2023-04-10T05:47:13.139Z,1003.73
2023-04-10T05:48:13.028Z,1003.73
2023-04-10T05:49:12.970Z,1003.72
2023-04-10T05:50:12.815Z,1003.69
2023-04-10T05:51:14.927Z,1003.74
2023-04-10T05:52:12.715Z,1003.73
2023-04-10T05:53:13.605Z,1003.73
2023-04-10T05:54:13.708Z,1003.71
2023-04-10T05:55:13.592Z,1003.73
2023-04-10T05:56:13.457Z,1003.71
2023-04-10T05:57:13.414Z,1003.70
2023-04-10T05:58:13.452Z,1003.63
2023-04-10T05:59:13.406Z,1003.64
2023-04-10T06:00:13.262Z,1003.62
2023-04-10T06:01:13.221Z,1003.66
2023-04-10T06:02:13.202Z,1003.64
2023-04-10T06:03:13.583Z,1003.62
2023-04-10T06:04:13.591Z,1003.65
2023-04-10T06:05:13.706Z,1003.67
2023-04-10T06:06:13.577Z,1003.62
2023-04-10T06:07:13.588Z,1003.67
2023-04-10T06:08:13.437Z,1003.66
2023-04-10T06:09:13.552Z,1003.63
2023-04-10T06:10:13.765Z,1003.66
2023-04-10T06:11:13.932Z,1003.58
2023-04-10T06:12:13.215Z,1003.59
2023-04-10T06:13:13.305Z,1003.56
2023-04-10T06:14:13.130Z,1003.60
2023-04-10T06:15:14.157Z,1003.59
2023-04-10T06:16:13.207Z,1003.61
2023-04-10T06:17:13.511Z,1003.61
2023-04-10T06:18:13.468Z,1003.63
2023-04-10T06:19:13.466Z,1003.64
2023-04-10T06:20:13.718Z,1003.60
2023-04-10T06:21:13.649Z,1003.62
2023-04-10T06:22:14.052Z,1003.60
2023-04-10T06:23:13.225Z,1003.65
2023-04-10T06:24:13.698Z,1003.61
2023-04-10T06:25:13.561Z,1003.60
2023-04-10T06:26:13.911Z,1003.58
2023-04-10T06:27:12.984Z,1003.62
2023-04-10T06:28:12.780Z,1003.59
2023-04-10T06:29:13.850Z,1003.57
2023-04-10T06:30:13.813Z,1003.57
2023-04-10T06:31:13.819Z,1003.57
2023-04-10T06:32:13.681Z,1003.54
2023-04-10T06:33:13.934Z,1003.53
2023-04-10T06:34:13.325Z,1003.52
2023-04-10T06:35:13.730Z,1003.56
2023-04-10T06:36:13.958Z,1003.55
2023-04-10T06:37:13.006Z,1003.50
2023-04-10T06:38:12.901Z,1003.51
2023-04-10T06:39:12.841Z,1003.51
2023-04-10T06:40:14.026Z,1003.54
2023-04-10T06:41:12.895Z,1003.50
2023-04-10T06:42:12.968Z,1003.45
2023-04-10T06:43:13.346Z,1003.47
2023-04-10T06:44:13.335Z,1003.51
2023-04-10T06:45:13.562Z,1003.46
2023-04-10T06:46:13.582Z,1003.46
2023-04-10T06:47:13.816Z,1003.43
2023-04-10T06:48:13.958Z,1003.45
2023-04-10T06:49:12.899Z,1003.43
2023-04-10T06:50:12.977Z,1003.41
2023-04-10T06:51:13.082Z,1003.43
2023-04-10T06:52:13.413Z,1003.46
2023-04-10T06:53:13.375Z,1003.44
2023-04-10T06:54:13.555Z,1003.42
2023-04-10T06:55:13.522Z,1003.44
2023-04-10T06:56:13.395Z,1003.44
2023-04-10T06:57:13.216Z,1003.41
2023-04-10T06:58:13.999Z,1003.42
2023-04-10T06:59:13.072Z,1003.40
2023-04-10T07:00:13.178Z,1003.41
2023-04-10T07:01:13.258Z,1003.38
2023-04-10T07:02:13.141Z,1003.45
2023-04-10T07:03:13.234Z,1003.45
2023-04-10T07:04:13.487Z,1003.46
2023-04-10T07:05:13.718Z,1003.42
2023-04-10T07:06:13.951Z,1003.46
2023-04-10T07:07:13.349Z,1003.45
2023-04-10T07:08:13.643Z,1003.49
2023-04-10T07:09:13.949Z,1003.46
2023-04-10T07:10:13.093Z,1003.46
2023-04-10T07:11:13.510Z,1003.44
2023-04-10T07:12:13.716Z,1003.46
2023-04-10T07:13:13.934Z,1003.47
2023-04-10T07:14:13.167Z,1003.47
2023-04-10T07:15:13.397Z,1003.43
2023-04-10T07:16:13.894Z,1003.42
2023-04-10T07:17:13.269Z,1003.42
2023-04-10T07:18:13.255Z,1003.44
2023-04-10T07:19:13.240Z,1003.44
2023-04-10T07:20:13.138Z,1003.43
2023-04-10T07:21:13.176Z,1003.43
2023-04-10T07:22:13.364Z,1003.39
2023-04-10T07:23:13.842Z,1003.39
2023-04-10T07:24:13.889Z,1003.37
2023-04-10T07:25:13.784Z,1003.37
2023-04-10T07:26:13.767Z,1003.33
2023-04-10T07:27:13.910Z,1003.28
2023-04-10T07:28:13.157Z,1003.31
2023-04-10T07:29:13.351Z,1003.20
2023-04-10T07:30:13.824Z,1003.19
2023-04-10T07:31:13.294Z,1003.25
2023-04-10T07:32:13.600Z,1003.19
2023-04-10T07:33:13.674Z,1003.21
2023-04-10T07:34:13.968Z,1003.16
2023-04-10T07:35:13.025Z,1003.10
2023-04-10T07:36:13.100Z,1003.18
2023-04-10T07:37:13.059Z,1003.07
2023-04-10T07:38:13.025Z,1003.10
2023-04-10T07:39:13.232Z,1003.04
2023-04-10T07:40:13.153Z,1003.05
2023-04-10T07:41:13.302Z,1003.01
2023-04-10T07:42:13.312Z,1003.10
2023-04-10T07:43:13.455Z,1003.10
2023-04-10T07:44:13.396Z,1002.96
2023-04-10T07:45:13.786Z,1003.02
2023-04-10T07:46:14.035Z,1002.97
2023-04-10T07:47:13.264Z,1003.02
2023-04-10T07:48:13.490Z,1003.06
2023-04-10T07:49:13.679Z,1002.98
2023-04-10T07:50:14.063Z,1002.86
2023-04-10T07:51:13.042Z,1002.96
2023-04-10T07:52:13.081Z,1002.91
2023-04-10T07:53:13.515Z,1002.84
2023-04-10T07:54:13.890Z,1002.80
2023-04-10T07:55:13.130Z,1002.74
2023-04-10T07:56:13.017Z,1002.79
2023-04-10T07:57:13.171Z,1002.78
2023-04-10T07:58:13.519Z,1002.73
2023-04-10T07:59:13.864Z,1002.66
2023-04-10T08:00:13.799Z,1002.67
2023-04-10T08:01:13.937Z,1002.66
2023-04-10T08:02:12.984Z,1002.70
2023-04-10T08:03:14.714Z,1002.64
2023-04-10T08:04:13.026Z,1002.58
2023-04-10T08:05:13.646Z,1002.64
2023-04-10T08:06:15.398Z,1002.60
2023-04-10T08:07:13.751Z,1002.57
2023-04-10T08:08:13.862Z,1002.58
2023-04-10T08:09:13.849Z,1002.58
2023-04-10T08:10:13.952Z,1002.72
2023-04-10T08:11:13.009Z,1002.56
2023-04-10T08:12:12.927Z,1002.67
2023-04-10T08:13:12.927Z,1002.58
2023-04-10T08:14:12.944Z,1002.53
2023-04-10T08:15:12.927Z,1002.51
2023-04-10T08:16:12.896Z,1002.38
2023-04-10T08:17:13.012Z,1002.58
2023-04-10T08:18:13.955Z,1002.46
2023-04-10T08:19:12.870Z,1002.43
2023-04-10T08:20:12.955Z,1002.53
2023-04-10T08:21:12.879Z,1002.42
2023-04-10T08:22:13.679Z,1002.43
2023-04-10T08:23:20.361Z,1002.45
2023-04-10T08:24:12.947Z,1002.39
2023-04-10T08:25:12.904Z,1002.39
2023-04-10T08:26:13.095Z,1002.30
2023-04-10T08:27:13.029Z,1002.34
2023-04-10T08:28:13.130Z,1002.34
2023-04-10T08:29:13.165Z,1002.34
2023-04-10T08:30:13.228Z,1002.40
2023-04-10T08:31:13.260Z,1002.33
2023-04-10T08:32:13.273Z,1002.38
2023-04-10T08:33:13.499Z,1002.28
2023-04-10T08:34:13.786Z,1002.32
2023-04-10T08:35:13.821Z,1002.36
2023-04-10T08:36:13.815Z,1002.25
2023-04-10T08:37:13.800Z,1002.38
2023-04-10T08:38:14.674Z,1002.27
2023-04-10T08:39:12.974Z,1002.24
2023-04-10T08:40:13.167Z,1002.38
2023-04-10T08:41:13.304Z,1002.29
2023-04-10T08:42:13.485Z,1002.29
2023-04-10T08:43:13.683Z,1002.24
2023-04-10T08:44:13.796Z,1002.25
2023-04-10T08:45:13.822Z,1002.27
2023-04-10T08:46:13.708Z,1002.32
2023-04-10T08:47:13.925Z,1002.26
2023-04-10T08:48:12.946Z,1002.31
2023-04-10T08:49:13.138Z,1002.25
2023-04-10T08:50:13.353Z,1002.19
2023-04-10T08:51:19.468Z,1002.13
2023-04-10T08:52:13.096Z,1002.20
2023-04-10T08:53:13.041Z,1002.17
2023-04-10T08:54:13.186Z,1002.16
2023-04-10T08:55:13.057Z,1002.13
2023-04-10T08:56:13.218Z,1002.17
2023-04-10T08:57:13.064Z,1002.08
2023-04-10T08:58:13.300Z,1002.11
2023-04-10T08:59:13.362Z,1002.06
2023-04-10T09:00:23.080Z,1002.06
2023-04-10T09:01:13.481Z,1002.13
2023-04-10T09:02:13.720Z,1001.99
2023-04-10T09:03:14.179Z,1002.01
2023-04-10T09:04:13.382Z,1002.03
2023-04-10T09:05:14.157Z,1001.96
2023-04-10T09:06:13.095Z,1001.95
2023-04-10T09:07:13.105Z,1001.83
2023-04-10T09:08:13.056Z,1001.90
2023-04-10T09:09:13.066Z,1001.74
2023-04-10T09:10:13.356Z,1001.83
2023-04-10T09:11:13.914Z,1001.80
2023-04-10T09:12:13.379Z,1001.84
2023-04-10T09:13:13.363Z,1001.79
2023-04-10T09:14:13.613Z,1001.70
2023-04-10T09:15:13.747Z,1001.76
2023-04-10T09:16:14.297Z,1001.73
2023-04-10T09:17:13.338Z,1001.80
2023-04-10T09:18:13.225Z,1001.83
2023-04-10T09:19:13.260Z,1001.75
2023-04-10T09:20:13.122Z,1001.74
2023-04-10T09:21:13.102Z,1001.72
2023-04-10T09:22:13.011Z,1001.75
2023-04-10T09:23:13.584Z,1001.69
2023-04-10T09:24:13.539Z,1001.76
2023-04-10T09:25:13.787Z,1001.72
2023-04-10T09:26:14.128Z,1001.71
2023-04-10T09:27:13.120Z,1001.71
2023-04-10T09:28:13.229Z,1001.57
2023-04-10T09:29:13.133Z,1001.67
2023-04-10T09:30:13.000Z,1001.66
2023-04-10T09:31:13.307Z,1001.56
2023-04-10T09:32:15.028Z,1001.68
2023-04-10T09:33:13.052Z,1001.59
2023-04-10T09:34:13.434Z,1001.50
2023-04-10T09:35:13.649Z,1001.54
2023-04-10T09:36:15.781Z,1001.60
2023-04-10T09:37:14.646Z,1001.60
2023-04-10T09:38:13.595Z,1001.65
2023-04-10T09:39:13.860Z,1001.61
2023-04-10T09:40:13.689Z,1001.60
2023-04-10T09:41:13.777Z,1001.66
2023-04-10T09:42:13.959Z,1001.56
2023-04-10T09:43:12.841Z,1001.58
2023-04-10T09:44:13.811Z,1001.61
2023-04-10T09:45:13.952Z,1001.47
2023-04-10T09:46:13.167Z,1001.59
2023-04-10T09:47:13.288Z,1001.56
2023-04-10T09:48:15.068Z,1001.57
2023-04-10T09:49:13.115Z,1001.55
2023-04-10T09:50:13.252Z,1001.49
2023-04-10T09:51:13.262Z,1001.48
2023-04-10T09:52:13.559Z,1001.59
2023-04-10T09:53:15.087Z,1001.58
2023-04-10T09:54:13.189Z,1001.53
2023-04-10T09:55:13.152Z,1001.57
2023-04-10T09:56:13.241Z,1001.55
2023-04-10T09:57:13.201Z,1001.62
2023-04-10T09:58:14.716Z,1001.60
2023-04-10T09:59:13.793Z,1001.60
2023-04-10T10:00:15.331Z,1001.55
2023-04-10T10:01:16.814Z,1001.43
2023-04-10T10:02:13.796Z,1001.58
2023-04-10T10:03:14.168Z,1001.43
2023-04-10T10:04:13.609Z,1001.40
2023-04-10T10:05:13.802Z,1001.42
2023-04-10T10:06:13.060Z,1001.37
2023-04-10T10:07:13.119Z,1001.39
2023-04-10T10:08:13.461Z,1001.34
2023-04-10T10:09:14.162Z,1001.40
2023-04-10T10:10:14.095Z,1001.43
2023-04-10T10:11:13.665Z,1001.34
2023-04-10T10:12:15.056Z,1001.38
2023-04-10T10:13:14.807Z,1001.32
2023-04-10T10:14:14.011Z,1001.28
2023-04-10T10:15:13.145Z,1001.31
2023-04-10T10:16:13.208Z,1001.31
2023-04-10T10:17:14.492Z,1001.27
2023-04-10T10:18:13.395Z,1001.29
2023-04-10T10:19:15.572Z,1001.29
2023-04-10T10:20:13.546Z,1001.31
2023-04-10T10:21:13.714Z,1001.20
2023-04-10T10:22:13.913Z,1001.24
2023-04-10T10:23:13.012Z,1001.16
2023-04-10T10:24:13.039Z,1001.18
2023-04-10T10:25:13.999Z,1001.01
2023-04-10T10:26:12.996Z,1001.15
2023-04-10T10:27:13.079Z,1001.14
2023-04-10T10:28:13.090Z,1001.16
2023-04-10T10:29:13.255Z,1001.07
2023-04-10T10:30:28.366Z,1001.18
2023-04-10T10:31:15.783Z,1001.15
2023-04-10T10:32:14.576Z,1001.12
2023-04-10T10:33:16.974Z,1001.05
2023-04-10T10:34:14.377Z,1001.02
2023-04-10T10:35:15.697Z,1000.98
2023-04-10T10:36:14.697Z,1001.12
2023-04-10T10:37:16.365Z,1000.87
2023-04-10T10:38:14.917Z,1001.00
2023-04-10T10:39:15.498Z,1000.94
2023-04-10T10:40:18.207Z,1000.95
2023-04-10T10:41:15.330Z,1000.84
2023-04-10T10:42:18.025Z,1000.87
2023-04-10T10:43:15.598Z,1000.79
2023-04-10T10:44:13.450Z,1000.85
2023-04-10T10:45:16.737Z,1000.78
2023-04-10T10:46:14.251Z,1000.83
2023-04-10T10:47:17.439Z,1000.81
2023-04-10T10:48:16.263Z,1000.79
2023-04-10T10:49:16.020Z,1000.74
2023-04-10T10:50:17.104Z,1000.70
2023-04-10T10:51:14.409Z,1000.70
2023-04-10T10:52:13.499Z,1000.61
2023-04-10T10:53:13.380Z,1000.69
2023-04-10T10:54:13.469Z,1000.71
2023-04-10T10:55:13.536Z,1000.65
2023-04-10T10:56:15.078Z,1000.60
2023-04-10T10:57:17.220Z,1000.65
2023-04-10T10:58:16.197Z,1000.63
2023-04-10T10:59:15.988Z,1000.58
2023-04-10T11:00:14.918Z,1000.55
2023-04-10T11:01:16.958Z,1000.56
2023-04-10T11:02:18.671Z,1000.52
2023-04-10T11:03:15.412Z,1000.54
2023-04-10T11:04:14.610Z,1000.50
2023-04-10T11:05:15.983Z,1000.45
2023-04-10T11:06:15.371Z,1000.39
2023-04-10T11:07:13.253Z,1000.31
2023-04-10T11:08:18.370Z,1000.32
2023-04-10T11:09:13.631Z,1000.37
2023-04-10T11:10:15.974Z,1000.37
2023-04-10T11:11:14.676Z,1000.30
2023-04-10T11:12:15.864Z,1000.28
2023-04-10T11:13:14.075Z,1000.28
2023-04-10T11:14:12.991Z,1000.28
2023-04-10T11:15:13.307Z,1000.17
2023-04-10T11:16:17.703Z,1000.23
2023-04-10T11:17:16.910Z,1000.07
2023-04-10T11:18:17.350Z,1000.19
2023-04-10T11:19:21.739Z,1000.08
2023-04-10T11:20:14.559Z,1000.15
2023-04-10T11:21:13.480Z,1000.06
2023-04-10T11:22:13.341Z,1000.07
2023-04-10T11:23:17.069Z,1000.02
2023-04-10T11:24:14.843Z,1000.05
2023-04-10T11:25:15.373Z,1000.03
2023-04-10T11:26:16.083Z,999.92
2023-04-10T11:27:19.165Z,999.97
2023-04-10T11:28:13.172Z,999.97
2023-04-10T11:29:14.606Z,1000.00
2023-04-10T11:30:17.218Z,999.90
2023-04-10T11:31:16.695Z,999.82
2023-04-10T11:32:18.123Z,999.78
2023-04-10T11:33:13.055Z,999.85
2023-04-10T11:34:15.767Z,999.82
2023-04-10T11:35:16.550Z,999.78
2023-04-10T11:36:16.576Z,999.72
2023-04-10T11:37:13.545Z,999.74
2023-04-10T11:38:16.712Z,999.77
2023-04-10T11:39:13.610Z,999.76
2023-04-10T11:40:17.822Z,999.67
2023-04-10T11:41:15.510Z,999.64
2023-04-10T11:42:16.684Z,999.59
2023-04-10T11:43:13.767Z,999.55
2023-04-10T11:44:17.943Z,999.48
2023-04-10T11:45:16.869Z,999.54
2023-04-10T11:46:17.126Z,999.51
2023-04-10T11:47:17.537Z,999.48
2023-04-10T11:48:13.600Z,999.45
2023-04-10T11:49:15.878Z,999.43
2023-04-10T11:50:16.747Z,999.46
2023-04-10T11:51:13.786Z,999.41
2023-04-10T11:52:13.897Z,999.45
2023-04-10T11:53:14.614Z,999.45
2023-04-10T11:54:18.521Z,999.40
2023-04-10T11:55:13.623Z,999.19
2023-04-10T11:56:13.495Z,999.40
2023-04-10T11:57:16.788Z,999.34
2023-04-10T11:58:16.848Z,999.36
2023-04-10T11:59:14.153Z,999.33
2023-04-10T12:00:13.299Z,999.38
2023-04-10T12:01:14.807Z,999.28
2023-04-10T12:02:13.718Z,999.30
2023-04-10T12:03:13.906Z,999.30
2023-04-10T12:04:15.487Z,999.31
2023-04-10T12:05:13.977Z,999.22
2023-04-10T12:06:12.861Z,999.28
2023-04-10T12:07:17.181Z,999.19